sensor_id;sensor_type;location;lat;lon;timestamp;P1;durP1;ratioP1;P2;durP2;ratioP2
22829;SDS011;11581;51.250;6.778;2024-02-26T00:00:06;1.35;;;0.70;;
22829;SDS011;11581;51.250;6.778;2024-02-26T00:02:34;1.25;;;0.65;;
22829;SDS011;11581;51.250;6.778;2024-02-26T00:05:03;2.22;;;0.98;;
22829;SDS011;11581;51.250;6.778;2024-02-26T00:07:30;1.95;;;0.80;;
22829;SDS011;11581;51.250;6.778;2024-02-26T00:09:56;0.98;;;0.52;;
22829;SDS011;11581;51.250;6.778;2024-02-26T00:12:22;2.95;;;0.85;;
22829;SDS011;11581;51.250;6.778;2024-02-26T00:14:49;2.00;;;1.02;;
22829;SDS011;11581;51.250;6.778;2024-02-26T00:17:17;2.10;;;0.70;;
22829;SDS011;11581;51.250;6.778;2024-02-26T00:19:43;3.15;;;0.95;;
22829;SDS011;11581;51.250;6.778;2024-02-26T00:22:10;2.13;;;1.00;;
22829;SDS011;11581;51.250;6.778;2024-02-26T00:24:36;2.17;;;0.93;;
22829;SDS011;11581;51.250;6.778;2024-02-26T00:27:02;1.30;;;0.70;;
22829;SDS011;11581;51.250;6.778;2024-02-26T00:29:29;1.38;;;0.60;;
22829;SDS011;11581;51.250;6.778;2024-02-26T00:31:55;1.55;;;0.70;;
22829;SDS011;11581;51.250;6.778;2024-02-26T00:34:23;1.45;;;0.70;;
22829;SDS011;11581;51.250;6.778;2024-02-26T00:36:50;1.67;;;0.70;;
22829;SDS011;11581;51.250;6.778;2024-02-26T00:39:16;2.72;;;0.90;;
22829;SDS011;11581;51.250;6.778;2024-02-26T00:41:42;2.92;;;0.57;;
22829;SDS011;11581;51.250;6.778;2024-02-26T00:44:09;2.03;;;0.80;;
22829;SDS011;11581;51.250;6.778;2024-02-26T00:46:35;1.40;;;0.70;;
22829;SDS011;11581;51.250;6.778;2024-02-26T00:49:02;2.28;;;0.70;;
22829;SDS011;11581;51.250;6.778;2024-02-26T00:51:30;1.42;;;0.68;;
22829;SDS011;11581;51.250;6.778;2024-02-26T00:53:56;1.92;;;0.60;;
22829;SDS011;11581;51.250;6.778;2024-02-26T00:56:23;1.92;;;0.63;;
22829;SDS011;11581;51.250;6.778;2024-02-26T00:58:49;1.88;;;0.75;;
22829;SDS011;11581;51.250;6.778;2024-02-26T01:01:16;1.30;;;0.65;;
22829;SDS011;11581;51.250;6.778;2024-02-26T01:03:42;1.73;;;0.65;;
22829;SDS011;11581;51.250;6.778;2024-02-26T01:06:09;1.70;;;0.80;;
22829;SDS011;11581;51.250;6.778;2024-02-26T01:08:37;1.27;;;0.47;;
22829;SDS011;11581;51.250;6.778;2024-02-26T01:11:04;1.10;;;0.50;;
22829;SDS011;11581;51.250;6.778;2024-02-26T01:13:30;1.25;;;0.43;;
22829;SDS011;11581;51.250;6.778;2024-02-26T01:15:57;1.58;;;0.70;;
22829;SDS011;11581;51.250;6.778;2024-02-26T01:18:23;1.42;;;0.80;;
22829;SDS011;11581;51.250;6.778;2024-02-26T01:20:50;1.80;;;0.60;;
22829;SDS011;11581;51.250;6.778;2024-02-26T01:23:16;0.65;;;0.40;;
22829;SDS011;11581;51.250;6.778;2024-02-26T01:25:44;0.82;;;0.40;;
22829;SDS011;11581;51.250;6.778;2024-02-26T01:28:10;0.88;;;0.50;;
22829;SDS011;11581;51.250;6.778;2024-02-26T01:30:36;1.30;;;0.65;;
22829;SDS011;11581;51.250;6.778;2024-02-26T01:33:03;0.73;;;0.43;;
22829;SDS011;11581;51.250;6.778;2024-02-26T01:35:29;2.42;;;0.57;;
22829;SDS011;11581;51.250;6.778;2024-02-26T01:37:56;1.67;;;0.70;;
22829;SDS011;11581;51.250;6.778;2024-02-26T01:40:26;1.73;;;0.75;;
22829;SDS011;11581;51.250;6.778;2024-02-26T01:42:54;0.93;;;0.50;;
22829;SDS011;11581;51.250;6.778;2024-02-26T01:45:20;1.23;;;0.50;;
22829;SDS011;11581;51.250;6.778;2024-02-26T01:47:49;1.25;;;0.50;;
22829;SDS011;11581;51.250;6.778;2024-02-26T01:50:16;2.13;;;0.88;;
22829;SDS011;11581;51.250;6.778;2024-02-26T01:52:43;1.45;;;0.52;;
22829;SDS011;11581;51.250;6.778;2024-02-26T01:55:09;1.25;;;0.68;;
22829;SDS011;11581;51.250;6.778;2024-02-26T01:57:36;1.48;;;0.52;;
22829;SDS011;11581;51.250;6.778;2024-02-26T02:00:04;0.93;;;0.43;;
22829;SDS011;11581;51.250;6.778;2024-02-26T02:02:34;1.38;;;0.50;;
22829;SDS011;11581;51.250;6.778;2024-02-26T02:05:01;1.45;;;0.50;;
22829;SDS011;11581;51.250;6.778;2024-02-26T02:07:28;3.20;;;0.60;;
22829;SDS011;11581;51.250;6.778;2024-02-26T02:09:55;1.58;;;0.52;;
22829;SDS011;11581;51.250;6.778;2024-02-26T02:12:21;0.73;;;0.45;;
22829;SDS011;11581;51.250;6.778;2024-02-26T02:14:47;1.65;;;0.60;;
22829;SDS011;11581;51.250;6.778;2024-02-26T02:17:15;3.05;;;1.17;;
22829;SDS011;11581;51.250;6.778;2024-02-26T02:19:42;2.38;;;0.70;;
22829;SDS011;11581;51.250;6.778;2024-02-26T02:22:09;1.75;;;0.52;;
22829;SDS011;11581;51.250;6.778;2024-02-26T02:24:36;1.55;;;0.55;;
22829;SDS011;11581;51.250;6.778;2024-02-26T02:27:02;1.15;;;0.60;;
22829;SDS011;11581;51.250;6.778;2024-02-26T02:29:29;0.82;;;0.40;;
22829;SDS011;11581;51.250;6.778;2024-02-26T02:31:56;1.63;;;0.55;;
22829;SDS011;11581;51.250;6.778;2024-02-26T02:34:22;0.80;;;0.50;;
22829;SDS011;11581;51.250;6.778;2024-02-26T02:36:51;0.77;;;0.45;;
22829;SDS011;11581;51.250;6.778;2024-02-26T02:39:19;2.72;;;0.50;;
22829;SDS011;11581;51.250;6.778;2024-02-26T02:41:45;1.88;;;0.93;;
22829;SDS011;11581;51.250;6.778;2024-02-26T02:44:12;1.98;;;0.82;;
22829;SDS011;11581;51.250;6.778;2024-02-26T02:46:38;1.85;;;0.73;;
22829;SDS011;11581;51.250;6.778;2024-02-26T02:49:07;3.35;;;0.80;;
22829;SDS011;11581;51.250;6.778;2024-02-26T02:51:34;1.15;;;0.65;;
22829;SDS011;11581;51.250;6.778;2024-02-26T02:54:00;0.93;;;0.50;;
22829;SDS011;11581;51.250;6.778;2024-02-26T02:56:28;1.50;;;0.70;;
22829;SDS011;11581;51.250;6.778;2024-02-26T02:58:55;1.77;;;0.70;;
22829;SDS011;11581;51.250;6.778;2024-02-26T03:01:21;1.98;;;0.70;;
22829;SDS011;11581;51.250;6.778;2024-02-26T03:03:48;0.75;;;0.52;;
22829;SDS011;11581;51.250;6.778;2024-02-26T03:06:14;1.83;;;0.70;;
22829;SDS011;11581;51.250;6.778;2024-02-26T03:08:40;1.95;;;0.80;;
22829;SDS011;11581;51.250;6.778;2024-02-26T03:11:07;1.42;;;0.57;;
22829;SDS011;11581;51.250;6.778;2024-02-26T03:13:35;1.48;;;0.80;;
22829;SDS011;11581;51.250;6.778;2024-02-26T03:16:04;2.05;;;0.80;;
22829;SDS011;11581;51.250;6.778;2024-02-26T03:18:30;4.10;;;0.98;;
22829;SDS011;11581;51.250;6.778;2024-02-26T03:20:56;1.75;;;0.80;;
22829;SDS011;11581;51.250;6.778;2024-02-26T03:23:23;0.80;;;0.60;;
22829;SDS011;11581;51.250;6.778;2024-02-26T03:25:49;1.55;;;0.80;;
22829;SDS011;11581;51.250;6.778;2024-02-26T03:28:16;1.52;;;0.73;;
22829;SDS011;11581;51.250;6.778;2024-02-26T03:30:43;1.00;;;0.50;;
22829;SDS011;11581;51.250;6.778;2024-02-26T03:33:10;1.13;;;0.57;;
22829;SDS011;11581;51.250;6.778;2024-02-26T03:35:36;1.83;;;0.80;;
22829;SDS011;11581;51.250;6.778;2024-02-26T03:38:03;1.27;;;0.70;;
22829;SDS011;11581;51.250;6.778;2024-02-26T03:40:29;1.88;;;0.60;;
22829;SDS011;11581;51.250;6.778;2024-02-26T03:42:56;1.50;;;0.60;;
22829;SDS011;11581;51.250;6.778;2024-02-26T03:45:23;2.20;;;0.70;;
22829;SDS011;11581;51.250;6.778;2024-02-26T03:47:52;1.35;;;0.70;;
22829;SDS011;11581;51.250;6.778;2024-02-26T03:50:18;3.17;;;1.02;;
22829;SDS011;11581;51.250;6.778;2024-02-26T03:52:45;1.25;;;0.77;;
22829;SDS011;11581;51.250;6.778;2024-02-26T03:55:11;2.70;;;0.77;;
22829;SDS011;11581;51.250;6.778;2024-02-26T03:57:38;1.40;;;0.88;;
22829;SDS011;11581;51.250;6.778;2024-02-26T04:00:04;1.98;;;0.93;;
22829;SDS011;11581;51.250;6.778;2024-02-26T04:02:36;2.55;;;0.90;;
22829;SDS011;11581;51.250;6.778;2024-02-26T04:05:04;3.83;;;0.57;;
22829;SDS011;11581;51.250;6.778;2024-02-26T04:07:31;1.73;;;0.80;;
22829;SDS011;11581;51.250;6.778;2024-02-26T04:09:57;1.75;;;0.82;;
22829;SDS011;11581;51.250;6.778;2024-02-26T04:12:23;1.75;;;0.50;;
22829;SDS011;11581;51.250;6.778;2024-02-26T04:14:50;1.75;;;0.70;;
22829;SDS011;11581;51.250;6.778;2024-02-26T04:17:16;1.80;;;0.70;;
22829;SDS011;11581;51.250;6.778;2024-02-26T04:19:43;1.08;;;0.70;;
22829;SDS011;11581;51.250;6.778;2024-02-26T04:22:10;1.33;;;0.80;;
22829;SDS011;11581;51.250;6.778;2024-02-26T04:24:37;4.07;;;0.80;;
22829;SDS011;11581;51.250;6.778;2024-02-26T04:27:03;1.08;;;0.52;;
22829;SDS011;11581;51.250;6.778;2024-02-26T04:29:30;1.10;;;0.55;;
22829;SDS011;11581;51.250;6.778;2024-02-26T04:31:56;1.58;;;1.00;;
22829;SDS011;11581;51.250;6.778;2024-02-26T04:34:22;4.65;;;1.00;;
22829;SDS011;11581;51.250;6.778;2024-02-26T04:36:49;1.35;;;0.77;;
22829;SDS011;11581;51.250;6.778;2024-02-26T04:39:17;1.58;;;0.70;;
22829;SDS011;11581;51.250;6.778;2024-02-26T04:41:44;2.13;;;1.08;;
22829;SDS011;11581;51.250;6.778;2024-02-26T04:44:10;2.92;;;0.80;;
22829;SDS011;11581;51.250;6.778;2024-02-26T04:46:37;2.20;;;0.88;;
22829;SDS011;11581;51.250;6.778;2024-02-26T04:49:03;2.47;;;0.82;;
22829;SDS011;11581;51.250;6.778;2024-02-26T04:51:29;2.10;;;1.10;;
22829;SDS011;11581;51.250;6.778;2024-02-26T04:53:56;1.83;;;0.70;;
22829;SDS011;11581;51.250;6.778;2024-02-26T04:56:24;2.17;;;1.00;;
22829;SDS011;11581;51.250;6.778;2024-02-26T04:58:51;3.38;;;1.08;;
22829;SDS011;11581;51.250;6.778;2024-02-26T05:01:17;3.22;;;1.13;;
22829;SDS011;11581;51.250;6.778;2024-02-26T05:03:44;2.10;;;0.85;;
22829;SDS011;11581;51.250;6.778;2024-02-26T05:06:10;4.28;;;1.10;;
22829;SDS011;11581;51.250;6.778;2024-02-26T05:08:38;2.15;;;1.08;;
22829;SDS011;11581;51.250;6.778;2024-02-26T05:11:04;1.67;;;0.80;;
22829;SDS011;11581;51.250;6.778;2024-02-26T05:13:32;3.20;;;1.20;;
22829;SDS011;11581;51.250;6.778;2024-02-26T05:15:58;3.40;;;1.08;;
22829;SDS011;11581;51.250;6.778;2024-02-26T05:18:25;1.75;;;0.73;;
22829;SDS011;11581;51.250;6.778;2024-02-26T05:20:51;2.38;;;0.93;;
22829;SDS011;11581;51.250;6.778;2024-02-26T05:23:18;2.63;;;1.30;;
22829;SDS011;11581;51.250;6.778;2024-02-26T05:25:44;3.88;;;1.20;;
22829;SDS011;11581;51.250;6.778;2024-02-26T05:28:12;1.25;;;0.90;;
22829;SDS011;11581;51.250;6.778;2024-02-26T05:30:42;2.50;;;1.30;;
22829;SDS011;11581;51.250;6.778;2024-02-26T05:33:08;1.67;;;0.98;;
22829;SDS011;11581;51.250;6.778;2024-02-26T05:35:34;1.85;;;0.90;;
22829;SDS011;11581;51.250;6.778;2024-02-26T05:38:01;2.22;;;0.90;;
22829;SDS011;11581;51.250;6.778;2024-02-26T05:40:27;2.47;;;1.00;;
22829;SDS011;11581;51.250;6.778;2024-02-26T05:42:54;2.42;;;1.13;;
22829;SDS011;11581;51.250;6.778;2024-02-26T05:45:20;2.63;;;0.95;;
22829;SDS011;11581;51.250;6.778;2024-02-26T05:47:48;3.08;;;1.00;;
22829;SDS011;11581;51.250;6.778;2024-02-26T05:50:15;2.00;;;1.10;;
22829;SDS011;11581;51.250;6.778;2024-02-26T05:52:42;2.85;;;1.15;;
22829;SDS011;11581;51.250;6.778;2024-02-26T05:55:08;2.38;;;1.20;;
22829;SDS011;11581;51.250;6.778;2024-02-26T05:57:34;2.30;;;1.10;;
22829;SDS011;11581;51.250;6.778;2024-02-26T06:00:01;4.10;;;1.20;;
22829;SDS011;11581;51.250;6.778;2024-02-26T06:02:36;2.40;;;1.10;;
22829;SDS011;11581;51.250;6.778;2024-02-26T06:05:05;3.25;;;1.00;;
22829;SDS011;11581;51.250;6.778;2024-02-26T06:07:32;3.47;;;1.20;;
22829;SDS011;11581;51.250;6.778;2024-02-26T06:09:58;2.65;;;1.40;;
22829;SDS011;11581;51.250;6.778;2024-02-26T06:12:25;3.35;;;1.45;;
22829;SDS011;11581;51.250;6.778;2024-02-26T06:14:53;2.95;;;1.17;;
22829;SDS011;11581;51.250;6.778;2024-02-26T06:17:19;3.15;;;1.50;;
22829;SDS011;11581;51.250;6.778;2024-02-26T06:19:46;2.17;;;1.13;;
22829;SDS011;11581;51.250;6.778;2024-02-26T06:22:14;2.35;;;1.05;;
22829;SDS011;11581;51.250;6.778;2024-02-26T06:24:40;2.20;;;1.27;;
22829;SDS011;11581;51.250;6.778;2024-02-26T06:27:06;2.67;;;1.13;;
22829;SDS011;11581;51.250;6.778;2024-02-26T06:29:33;3.17;;;1.50;;
22829;SDS011;11581;51.250;6.778;2024-02-26T06:32:00;2.50;;;1.20;;
22829;SDS011;11581;51.250;6.778;2024-02-26T06:34:26;2.55;;;1.25;;
22829;SDS011;11581;51.250;6.778;2024-02-26T06:36:53;2.47;;;1.40;;
22829;SDS011;11581;51.250;6.778;2024-02-26T06:39:20;2.47;;;1.20;;
22829;SDS011;11581;51.250;6.778;2024-02-26T06:41:47;4.72;;;1.25;;
22829;SDS011;11581;51.250;6.778;2024-02-26T06:44:13;2.97;;;1.38;;
22829;SDS011;11581;51.250;6.778;2024-02-26T06:46:40;1.85;;;1.17;;
22829;SDS011;11581;51.250;6.778;2024-02-26T06:49:06;1.98;;;1.30;;
22829;SDS011;11581;51.250;6.778;2024-02-26T06:51:32;3.20;;;1.55;;
22829;SDS011;11581;51.250;6.778;2024-02-26T06:53:59;2.33;;;1.00;;
22829;SDS011;11581;51.250;6.778;2024-02-26T06:56:27;2.75;;;1.85;;
22829;SDS011;11581;51.250;6.778;2024-02-26T06:58:53;2.90;;;1.40;;
22829;SDS011;11581;51.250;6.778;2024-02-26T07:01:20;2.50;;;1.60;;
22829;SDS011;11581;51.250;6.778;2024-02-26T07:03:46;2.28;;;1.42;;
22829;SDS011;11581;51.250;6.778;2024-02-26T07:06:12;4.28;;;1.50;;
22829;SDS011;11581;51.250;6.778;2024-02-26T07:08:39;3.75;;;1.58;;
22829;SDS011;11581;51.250;6.778;2024-02-26T07:11:07;2.42;;;1.15;;
22829;SDS011;11581;51.250;6.778;2024-02-26T07:13:34;2.25;;;1.17;;
22829;SDS011;11581;51.250;6.778;2024-02-26T07:16:01;1.92;;;1.30;;
22829;SDS011;11581;51.250;6.778;2024-02-26T07:18:27;3.85;;;1.38;;
22829;SDS011;11581;51.250;6.778;2024-02-26T07:20:54;5.03;;;1.60;;
22829;SDS011;11581;51.250;6.778;2024-02-26T07:26:24;4.95;;;2.05;;
22829;SDS011;11581;51.250;6.778;2024-02-26T07:28:52;5.38;;;1.95;;
22829;SDS011;11581;51.250;6.778;2024-02-26T07:31:19;3.78;;;2.05;;
22829;SDS011;11581;51.250;6.778;2024-02-26T07:33:45;5.15;;;2.00;;
22829;SDS011;11581;51.250;6.778;2024-02-26T07:36:12;3.95;;;2.20;;
22829;SDS011;11581;51.250;6.778;2024-02-26T07:38:38;3.58;;;1.75;;
22829;SDS011;11581;51.250;6.778;2024-02-26T07:41:05;4.47;;;1.75;;
22829;SDS011;11581;51.250;6.778;2024-02-26T07:43:31;2.38;;;1.63;;
22829;SDS011;11581;51.250;6.778;2024-02-26T07:45:59;3.22;;;1.88;;
22829;SDS011;11581;51.250;6.778;2024-02-26T07:48:25;5.20;;;2.22;;
22829;SDS011;11581;51.250;6.778;2024-02-26T07:50:52;3.20;;;1.70;;
22829;SDS011;11581;51.250;6.778;2024-02-26T07:53:18;5.63;;;2.03;;
22829;SDS011;11581;51.250;6.778;2024-02-26T07:55:45;6.15;;;1.85;;
22829;SDS011;11581;51.250;6.778;2024-02-26T07:58:11;5.63;;;3.03;;
22829;SDS011;11581;51.250;6.778;2024-02-26T08:00:38;3.97;;;2.03;;
22829;SDS011;11581;51.250;6.778;2024-02-26T08:03:06;3.70;;;1.98;;
22829;SDS011;11581;51.250;6.778;2024-02-26T08:05:33;2.63;;;1.38;;
22829;SDS011;11581;51.250;6.778;2024-02-26T08:07:59;3.20;;;1.60;;
22829;SDS011;11581;51.250;6.778;2024-02-26T08:10:25;3.35;;;1.58;;
22829;SDS011;11581;51.250;6.778;2024-02-26T08:12:52;3.08;;;1.42;;
22829;SDS011;11581;51.250;6.778;2024-02-26T08:15:18;3.78;;;2.03;;
22829;SDS011;11581;51.250;6.778;2024-02-26T08:17:45;2.72;;;1.80;;
22829;SDS011;11581;51.250;6.778;2024-02-26T08:20:14;3.83;;;2.00;;
22829;SDS011;11581;51.250;6.778;2024-02-26T08:22:40;1.95;;;1.17;;
22829;SDS011;11581;51.250;6.778;2024-02-26T08:25:07;2.90;;;1.67;;
22829;SDS011;11581;51.250;6.778;2024-02-26T08:27:35;4.38;;;1.30;;
22829;SDS011;11581;51.250;6.778;2024-02-26T08:30:01;2.75;;;1.33;;
22829;SDS011;11581;51.250;6.778;2024-02-26T08:32:28;2.13;;;1.05;;
22829;SDS011;11581;51.250;6.778;2024-02-26T08:34:54;2.00;;;1.10;;
22829;SDS011;11581;51.250;6.778;2024-02-26T08:37:22;2.90;;;1.33;;
22829;SDS011;11581;51.250;6.778;2024-02-26T08:39:48;4.05;;;1.88;;
22829;SDS011;11581;51.250;6.778;2024-02-26T08:42:15;3.03;;;1.30;;
22829;SDS011;11581;51.250;6.778;2024-02-26T08:44:41;2.30;;;1.17;;
22829;SDS011;11581;51.250;6.778;2024-02-26T08:47:08;2.35;;;1.40;;
22829;SDS011;11581;51.250;6.778;2024-02-26T08:49:34;2.13;;;1.20;;
22829;SDS011;11581;51.250;6.778;2024-02-26T08:52:01;3.38;;;1.20;;
22829;SDS011;11581;51.250;6.778;2024-02-26T08:54:29;2.33;;;1.20;;
22829;SDS011;11581;51.250;6.778;2024-02-26T08:56:56;2.20;;;1.13;;
22829;SDS011;11581;51.250;6.778;2024-02-26T08:59:22;2.80;;;1.20;;
22829;SDS011;11581;51.250;6.778;2024-02-26T09:01:49;3.13;;;1.23;;
22829;SDS011;11581;51.250;6.778;2024-02-26T09:04:15;1.95;;;1.17;;
22829;SDS011;11581;51.250;6.778;2024-02-26T09:06:42;3.72;;;1.60;;
22829;SDS011;11581;51.250;6.778;2024-02-26T09:09:08;2.42;;;1.30;;
22829;SDS011;11581;51.250;6.778;2024-02-26T09:11:36;1.67;;;1.10;;
22829;SDS011;11581;51.250;6.778;2024-02-26T09:14:02;3.58;;;1.50;;
22829;SDS011;11581;51.250;6.778;2024-02-26T09:16:29;3.17;;;1.30;;
22829;SDS011;11581;51.250;6.778;2024-02-26T09:18:55;1.83;;;1.00;;
22829;SDS011;11581;51.250;6.778;2024-02-26T09:21:22;2.10;;;0.85;;
22829;SDS011;11581;51.250;6.778;2024-02-26T09:23:49;2.40;;;1.40;;
22829;SDS011;11581;51.250;6.778;2024-02-26T09:26:16;2.28;;;1.30;;
22829;SDS011;11581;51.250;6.778;2024-02-26T09:28:44;2.38;;;1.33;;
22829;SDS011;11581;51.250;6.778;2024-02-26T09:31:10;2.72;;;1.30;;
22829;SDS011;11581;51.250;6.778;2024-02-26T09:33:37;1.27;;;1.02;;
22829;SDS011;11581;51.250;6.778;2024-02-26T09:36:03;1.45;;;0.93;;
22829;SDS011;11581;51.250;6.778;2024-02-26T09:38:31;3.10;;;1.05;;
22829;SDS011;11581;51.250;6.778;2024-02-26T09:41:02;3.65;;;1.30;;
22829;SDS011;11581;51.250;6.778;2024-02-26T09:43:30;2.75;;;1.40;;
22829;SDS011;11581;51.250;6.778;2024-02-26T09:46:01;3.20;;;1.58;;
22829;SDS011;11581;51.250;6.778;2024-02-26T09:48:28;2.63;;;1.40;;
22829;SDS011;11581;51.250;6.778;2024-02-26T09:50:55;2.67;;;1.50;;
22829;SDS011;11581;51.250;6.778;2024-02-26T09:53:22;2.67;;;1.17;;
22829;SDS011;11581;51.250;6.778;2024-02-26T09:55:48;4.60;;;1.30;;
22829;SDS011;11581;51.250;6.778;2024-02-26T09:58:15;3.50;;;1.17;;
22829;SDS011;11581;51.250;6.778;2024-02-26T10:00:45;2.95;;;1.33;;
22829;SDS011;11581;51.250;6.778;2024-02-26T10:03:14;3.00;;;1.52;;
22829;SDS011;11581;51.250;6.778;2024-02-26T10:05:42;4.93;;;2.00;;
22829;SDS011;11581;51.250;6.778;2024-02-26T10:08:08;3.08;;;1.65;;
22829;SDS011;11581;51.250;6.778;2024-02-26T10:10:35;2.88;;;1.40;;
22829;SDS011;11581;51.250;6.778;2024-02-26T10:13:03;2.78;;;1.27;;
22829;SDS011;11581;51.250;6.778;2024-02-26T10:15:34;3.63;;;1.48;;
22829;SDS011;11581;51.250;6.778;2024-02-26T10:18:03;2.10;;;1.30;;
22829;SDS011;11581;51.250;6.778;2024-02-26T10:20:31;3.50;;;1.58;;
22829;SDS011;11581;51.250;6.778;2024-02-26T10:22:57;3.17;;;1.55;;
22829;SDS011;11581;51.250;6.778;2024-02-26T10:25:24;3.75;;;1.55;;
22829;SDS011;11581;51.250;6.778;2024-02-26T10:27:51;2.88;;;1.83;;
22829;SDS011;11581;51.250;6.778;2024-02-26T10:30:18;3.00;;;1.63;;
22829;SDS011;11581;51.250;6.778;2024-02-26T10:32:45;4.60;;;2.15;;
22829;SDS011;11581;51.250;6.778;2024-02-26T10:35:12;4.18;;;1.75;;
22829;SDS011;11581;51.250;6.778;2024-02-26T10:37:40;5.57;;;1.60;;
22829;SDS011;11581;51.250;6.778;2024-02-26T10:40:09;3.60;;;2.25;;
22829;SDS011;11581;51.250;6.778;2024-02-26T10:42:35;3.60;;;1.70;;
22829;SDS011;11581;51.250;6.778;2024-02-26T10:45:02;5.70;;;2.10;;
22829;SDS011;11581;51.250;6.778;2024-02-26T10:47:29;4.40;;;1.90;;
22829;SDS011;11581;51.250;6.778;2024-02-26T10:49:56;5.03;;;2.42;;
22829;SDS011;11581;51.250;6.778;2024-02-26T10:52:23;3.83;;;1.70;;
22829;SDS011;11581;51.250;6.778;2024-02-26T10:54:52;4.00;;;2.33;;
22829;SDS011;11581;51.250;6.778;2024-02-26T10:57:19;4.13;;;2.05;;
22829;SDS011;11581;51.250;6.778;2024-02-26T10:59:47;3.30;;;1.92;;
22829;SDS011;11581;51.250;6.778;2024-02-26T11:02:14;4.70;;;2.25;;
22829;SDS011;11581;51.250;6.778;2024-02-26T11:04:40;4.80;;;2.17;;
22829;SDS011;11581;51.250;6.778;2024-02-26T11:07:08;3.40;;;2.15;;
22829;SDS011;11581;51.250;6.778;2024-02-26T11:09:35;2.90;;;1.80;;
22829;SDS011;11581;51.250;6.778;2024-02-26T11:12:03;3.00;;;1.90;;
22829;SDS011;11581;51.250;6.778;2024-02-26T11:14:35;4.35;;;2.40;;
22829;SDS011;11581;51.250;6.778;2024-02-26T11:17:02;5.00;;;2.38;;
22829;SDS011;11581;51.250;6.778;2024-02-26T11:19:28;5.45;;;2.70;;
22829;SDS011;11581;51.250;6.778;2024-02-26T11:21:56;5.90;;;2.60;;
22829;SDS011;11581;51.250;6.778;2024-02-26T11:24:22;5.13;;;2.50;;
22829;SDS011;11581;51.250;6.778;2024-02-26T11:26:51;4.00;;;2.25;;
22829;SDS011;11581;51.250;6.778;2024-02-26T11:31:52;3.80;;;2.28;;
22829;SDS011;11581;51.250;6.778;2024-02-26T11:34:18;4.45;;;2.20;;
22829;SDS011;11581;51.250;6.778;2024-02-26T11:36:45;4.28;;;2.42;;
22829;SDS011;11581;51.250;6.778;2024-02-26T11:39:12;5.18;;;2.53;;
22829;SDS011;11581;51.250;6.778;2024-02-26T11:41:42;3.83;;;2.35;;
22829;SDS011;11581;51.250;6.778;2024-02-26T11:44:08;4.22;;;2.13;;
22829;SDS011;11581;51.250;6.778;2024-02-26T11:46:38;4.55;;;2.40;;
22829;SDS011;11581;51.250;6.778;2024-02-26T11:51:50;6.25;;;2.38;;
22829;SDS011;11581;51.250;6.778;2024-02-26T11:56:58;4.95;;;3.13;;
22829;SDS011;11581;51.250;6.778;2024-02-26T11:59:37;3.20;;;2.03;;
22829;SDS011;11581;51.250;6.778;2024-02-26T12:02:03;6.38;;;2.90;;
22829;SDS011;11581;51.250;6.778;2024-02-26T12:04:30;5.47;;;2.85;;
22829;SDS011;11581;51.250;6.778;2024-02-26T12:07:00;4.30;;;2.45;;
22829;SDS011;11581;51.250;6.778;2024-02-26T12:09:30;7.50;;;3.42;;
22829;SDS011;11581;51.250;6.778;2024-02-26T12:11:57;5.85;;;3.05;;
22829;SDS011;11581;51.250;6.778;2024-02-26T12:14:25;4.60;;;2.65;;
22829;SDS011;11581;51.250;6.778;2024-02-26T12:16:51;4.60;;;2.75;;
22829;SDS011;11581;51.250;6.778;2024-02-26T12:19:18;9.77;;;3.20;;
22829;SDS011;11581;51.250;6.778;2024-02-26T12:21:45;7.00;;;3.40;;
22829;SDS011;11581;51.250;6.778;2024-02-26T12:24:18;5.50;;;3.30;;
22829;SDS011;11581;51.250;6.778;2024-02-26T12:26:45;5.13;;;3.50;;
22829;SDS011;11581;51.250;6.778;2024-02-26T12:29:11;7.13;;;3.85;;
22829;SDS011;11581;51.250;6.778;2024-02-26T12:31:38;5.53;;;3.42;;
22829;SDS011;11581;51.250;6.778;2024-02-26T12:34:06;7.75;;;4.55;;
22829;SDS011;11581;51.250;6.778;2024-02-26T12:36:34;6.50;;;3.92;;
22829;SDS011;11581;51.250;6.778;2024-02-26T12:39:01;6.63;;;4.35;;
22829;SDS011;11581;51.250;6.778;2024-02-26T12:41:32;6.60;;;4.25;;
22829;SDS011;11581;51.250;6.778;2024-02-26T12:43:59;8.70;;;4.20;;
22829;SDS011;11581;51.250;6.778;2024-02-26T12:46:25;8.93;;;5.13;;
22829;SDS011;11581;51.250;6.778;2024-02-26T12:48:52;8.80;;;4.72;;
22829;SDS011;11581;51.250;6.778;2024-02-26T12:51:19;7.05;;;4.20;;
22829;SDS011;11581;51.250;6.778;2024-02-26T12:53:46;5.75;;;4.13;;
22829;SDS011;11581;51.250;6.778;2024-02-26T12:56:15;7.05;;;4.50;;
22829;SDS011;11581;51.250;6.778;2024-02-26T12:58:43;6.35;;;4.13;;
22829;SDS011;11581;51.250;6.778;2024-02-26T13:01:13;8.32;;;4.05;;
22829;SDS011;11581;51.250;6.778;2024-02-26T13:03:40;6.75;;;4.07;;
22829;SDS011;11581;51.250;6.778;2024-02-26T13:06:07;6.68;;;3.90;;
22829;SDS011;11581;51.250;6.778;2024-02-26T13:08:34;6.40;;;3.55;;
22829;SDS011;11581;51.250;6.778;2024-02-26T13:11:00;6.95;;;3.90;;
22829;SDS011;11581;51.250;6.778;2024-02-26T13:13:27;7.57;;;4.40;;
22829;SDS011;11581;51.250;6.778;2024-02-26T13:16:02;5.90;;;4.13;;
22829;SDS011;11581;51.250;6.778;2024-02-26T13:18:29;5.13;;;3.75;;
22829;SDS011;11581;51.250;6.778;2024-02-26T13:21:06;6.85;;;4.30;;
22829;SDS011;11581;51.250;6.778;2024-02-26T13:23:33;6.75;;;3.70;;
22829;SDS011;11581;51.250;6.778;2024-02-26T13:25:59;7.70;;;3.53;;
22829;SDS011;11581;51.250;6.778;2024-02-26T13:28:26;7.25;;;4.20;;
22829;SDS011;11581;51.250;6.778;2024-02-26T13:30:53;6.70;;;3.85;;
22829;SDS011;11581;51.250;6.778;2024-02-26T13:33:23;6.78;;;4.28;;
22829;SDS011;11581;51.250;6.778;2024-02-26T13:35:49;7.03;;;4.57;;
22829;SDS011;11581;51.250;6.778;2024-02-26T13:38:16;7.05;;;4.72;;
22829;SDS011;11581;51.250;6.778;2024-02-26T13:40:43;9.07;;;4.82;;
22829;SDS011;11581;51.250;6.778;2024-02-26T13:43:09;9.13;;;4.82;;
22829;SDS011;11581;51.250;6.778;2024-02-26T13:45:36;7.43;;;4.80;;
22829;SDS011;11581;51.250;6.778;2024-02-26T13:48:04;6.53;;;4.18;;
22829;SDS011;11581;51.250;6.778;2024-02-26T13:50:32;9.55;;;4.43;;
22829;SDS011;11581;51.250;6.778;2024-02-26T13:52:58;6.60;;;4.90;;
22829;SDS011;11581;51.250;6.778;2024-02-26T13:55:25;8.95;;;4.38;;
22829;SDS011;11581;51.250;6.778;2024-02-26T13:57:53;7.60;;;5.13;;
22829;SDS011;11581;51.250;6.778;2024-02-26T14:00:20;8.68;;;4.70;;
22829;SDS011;11581;51.250;6.778;2024-02-26T14:02:46;5.47;;;4.20;;
22829;SDS011;11581;51.250;6.778;2024-02-26T14:05:13;6.97;;;4.78;;
22829;SDS011;11581;51.250;6.778;2024-02-26T14:07:41;7.20;;;4.57;;
22829;SDS011;11581;51.250;6.778;2024-02-26T14:10:08;7.15;;;4.78;;
22829;SDS011;11581;51.250;6.778;2024-02-26T14:12:35;6.68;;;4.28;;
22829;SDS011;11581;51.250;6.778;2024-02-26T14:15:02;7.57;;;4.40;;
22829;SDS011;11581;51.250;6.778;2024-02-26T14:17:30;7.88;;;4.25;;
22829;SDS011;11581;51.250;6.778;2024-02-26T14:19:56;7.93;;;4.53;;
22829;SDS011;11581;51.250;6.778;2024-02-26T14:22:23;6.72;;;4.45;;
22829;SDS011;11581;51.250;6.778;2024-02-26T14:24:52;8.07;;;4.38;;
22829;SDS011;11581;51.250;6.778;2024-02-26T14:27:19;6.00;;;3.90;;
22829;SDS011;11581;51.250;6.778;2024-02-26T14:29:47;5.45;;;3.58;;
22829;SDS011;11581;51.250;6.778;2024-02-26T14:32:13;7.28;;;3.30;;
22829;SDS011;11581;51.250;6.778;2024-02-26T14:34:40;5.93;;;3.72;;
22829;SDS011;11581;51.250;6.778;2024-02-26T14:37:06;7.20;;;3.95;;
22829;SDS011;11581;51.250;6.778;2024-02-26T14:39:33;7.80;;;3.60;;
22829;SDS011;11581;51.250;6.778;2024-02-26T14:42:01;5.43;;;3.55;;
22829;SDS011;11581;51.250;6.778;2024-02-26T14:44:27;4.57;;;3.17;;
22829;SDS011;11581;51.250;6.778;2024-02-26T14:46:54;4.78;;;3.17;;
22829;SDS011;11581;51.250;6.778;2024-02-26T14:49:20;6.88;;;2.97;;
22829;SDS011;11581;51.250;6.778;2024-02-26T14:51:47;5.53;;;3.55;;
22829;SDS011;11581;51.250;6.778;2024-02-26T14:54:13;5.30;;;3.42;;
22829;SDS011;11581;51.250;6.778;2024-02-26T14:56:40;9.50;;;3.80;;